Copyright © 2000 Lake County Sheriff's Office. All rights reserved. Real Property SalesLake County Sheriff's OfficeNothing is guaranteed with foreclosure sales.Disclamer - Contents of this page are not to be relied upon as sales are subject to change. Updates to this page will normally occur daily unless circumstances prevent the update. In addition, upcoming properties are listed in the Friday edition of the Lake County News Herald or a complete list is available at the Sheriff's Office front counter. *Note - Appraisal may have been conducted without interior examination of property. (See FAQ for detailed explanation)
Click the parcel number for more information.Click the case number to view a full legal description.Sales DatePlaintiffDefendantAddressAppraised ValueMortgage ValueStatusSold Value
27-B-049-A-00-008-0 14CF000943 04/27/2015Lakeview Loan Servicing, LLCWeber, Kelly D.38488 Bell Road, Willoughby, OH 44094$111,000.00$118,413.44Bank$74,004.00
34-A-015-B-00-068-0 14CF001667 04/27/2015Wells Fargo Bank, N.A.Farren, Vanessa R.36275 North Riverview Drive, Eastlake, OH 44095$54,000.00$59,118.33Bank$36,000.00
16-A-018-P-00-030-0 14CF001875 04/27/2015JPMorgan Chase Bank, National AssociationLyman, Carol B. (Unknown Heirs)7317-B Foxmill Road, Mentor, OH 44060$60,000.00$61,125.77Canceled 
34-B-027-E-00-053-0 13CF002386 04/27/2015U.S. BAnk National Association, as TrusteeSolymosi, James M.656 St. Lawrence Boulevard, Eastlake, OH 44095$153,000.00$192,600.37Canceled 
16-B-049-0-00-023-0 14CF000539 04/27/2015JPMorgan Chase Bank, National AssociationKerr, Brian P7280 Burridge Avenue, Mentor, OH 44060$114,000.00$130,281.45Bank$76,000.00
16-D-111-F-00-005-0 14CF001629 04/27/2015Matrix Financial Services CorporationElmore, Geneva B.4796 Belle Meadow Road, Mentor, OH 44060$78,000.00$79,766.03Bank$52,000.00
16-C-080-D-00-008-0 14CF001891 04/27/2015Bank of America, N.A.White, John D. (Deceased)7390 Cole Drive, Mentor, OH 44060$117,000.00$121,113.12Bank$78,000.00
27-B-052-F-00-056-0 14CF002069 04/27/2015Green Tree Servicing, LLCPowell, Matthew38660 Congressional Lane, Willoughby, OH 44094$168,000.00$203,641.51Bank$135,000.00
16-C-068-B-00-038-0 14CF001910 04/27/2015Federal National Mortgage AssociationDerrick, Joseph M. II7179 Culver Boulevard, Mentor, OH 44060$102,000.00$119,869.82Bank$68,000.00
29-A-010-A-00-038-0 14CF001958 04/27/2015Federal National Mortgage AssociationLinn, Kenneth R.1319 Craneing Road, Wickliffe, OH 44092$78,000.00$84,140.45Bank$52,000.00
16-A-005-E-00-036-0 11CF002259 04/27/2015CitiMortgage, Inc.Salopeck, Elizabeth A.8180 Deepwood Boulevard, #12, Mentor, OH 44060$39,000.00$51,042.29Private$27,000.00
16-C-081-E-00-027-0 11CF002676 04/27/2015CitiMortgage, Inc.Hijjawi, Susan M.6363 Clearair Drive, Mentor, OH 44060$120,000.00$133,406.31Canceled 
34-A-007-A-00-049-0 11CF002262 04/27/2015U.S. Bank, National AssociationShepherd, Jody R.1295 Hulett Avenue, Eastlake, OH 44095$114,000.00$143,945.48Bank$76,000.00
16-C-077-A-00-042-0 11CF002933 04/27/2015Deutsche Bank National Trust Company, as TrusteeBakanas, Edward8048 Edgewood Road, Mentor, OH 44060$117,000.00$123,277.05Canceled 
34-A-010-C-00-044-0 14CF000096 04/27/2015Wells Fargo Bank, N.A.Novak, Paul A. (Unknown Heirs)33482 Willowick Drive, Eastlake, OH 44095$75,000.00$13,706.29No Bid, No Sale 
01-B-112-A-19-022-0 10CF001294 04/27/2015USDA **Appraised Value is Minimum Bid per Court Order**Roth, Jeffrey L. (deceased, Estate of)1751 Meadows Road, Madison, OH 44057$45,000.00$113,527.38Private$55,000.00
34-A-010-I-00-015-0 13CF002298 04/27/2015Nationstar Mortgage LLCCrawford, Arlene M.33224 Lake Shore Boulevard, Eastlake, OH 44095$99,000.00$38,306.29No Bid, No Sale 
15-C-022-0-00-040-0 14CF000417 05/04/2015JPMorgan Chase Bank, National AssociationEvans, August (Estate of)574 Newell Street, Painesville, OH 44077$96,000.00$66,799.13Bank$64,000.00
01-B-112-A-13-014-0 01-B-112-A-13-015-0 12CF002986 05/04/2015USDAStaten, Jason P.6191 Maxwell Drive, Madison, OH 44057$66,000.00$120,898.56No Bid, No Sale 
01-B-112-A-21-010-0 12CF002981 05/04/2015USDAJarnigan, Heather M.6226 Maxwell Drive, Madison, OH 44057$72,000.00$157,232.83Private$48,000.00
01-B-112-A-01-050-0 06CF002166 05/04/2015USDAGuest, Cherith M.1777 Benjamin Road, Madison, OH 44057$78,000.00$124,823.96No Bid, No Sale 
01-B-124-0-00-038-0 13CF002795 05/04/2015CitiMortgage, Inc.Beasley, Brad2361 Townline Road, Madison, OH 44057$75,000.00$83,900.17Bank$50,000.00
34-B-025-D-00-032-0 12CF002064 05/04/2015JPMorgan Chase Bank, National AssociationDillinger, Christopher L.249 Plymouth Drive, Eastlake, OH 44095$48,000.00$49,083.48Canceled 
19-A-090-L-00-021-0 13CF002560 05/04/2015Wells Fargo Bank, N.A.Coliano, Aimee L.7519 Primrose Drive, Mentor-on-the-Lake, OH 44060$102,000.00$111,045.89Canceled 
01-A-090-0-00-019-0 14CF001863 05/04/2015U.S. Bank Trust, N.A., as Trustee for LSF8 Master Participation TrustZorn, Ronald A.1540 Dock Road, Madison, OH 44057$189,000.00$223,843.67Bank$126,000.00
01-B-112-A-13-087-0 14CF001757 05/04/2015Green Planet Servicing, LLCBeyer, Michael D.6245 South Watling Way, Madison, OH 44057$102,000.00$73,888.86Canceled 
15-C-025-0-00-017-0 14CF000919 05/04/2015JPMorgan Chase Bank, National AssociationWalck, Ronald A.307 Lexington Avenue, Painesville, OH 44077$69,000.00$34,475.71Canceled 
08-A-012-H-00-023-0 14CF002034 05/04/2015Fifth Third Mortgage CompanyZehner, David C.8184 Timberlane Drive, Concord, OH 44077$282,000.00$315,810.43Bank$188,000.00
04-A-044-C-00-005-0 14CF001777 05/04/2015Deutsche Bank National Trust Company, as TrusteeDillworth, Stephen E.4217 Harper Street, Perry, OH 44081$60,000.00$46,576.13Bank$40,000.00
11-B-045-F-00-013-0 14CF001589 05/04/2015Bank of America, N.A.Abad, Rommel1044 Zephyr Lane, Painesville, OH 44077$120,000.00$123,683.26Bank$80,000.00
01-B-126-A-00-028-0 14CF001445 05/04/2015Cardinal Community Credit UnionDiFranco, Robert2363 Cambrian Way, Madison, OH 44057$114,000.00$107,393.94Bank$76,000.00
19-A-092-E-00-022-0 14CF001254 05/04/2015JPMorgan Chase Bank, N.A.Tinat, LLC5650 Marine Parkway, Mentor-on-the-Lake, OH 44060$93,000.00$84,355.55Canceled 
34-A-008-J-00-034-0 14CF001745 05/11/2015The Huntington National BankChamblin, David W.1170 East 362nd Street, Eastlake, OH 44095$87,000.00$103,678.77Active 
34-B-025-H-10-029-0 14CF001932 05/11/2015Federal National Mortgage Association ("Fannie Mae")Ranallo, Jay D.416 Riverdale Drive, Eastlake, OH 44095$132,000.00$115,746.10Active 
27-A-022-B-00-004-0 14CF001870 05/11/2015Wells Fargo Bank, NAReid, Timothy A.39295 King Edward Court, Willoughby, OH 44094$156,000.00$137,722.54Canceled 
16-D-117-L-00-088-0 14CF001328 05/11/2015Wells Fargo Financial Ohio 1, Inc.Walker, Charles E. (Unknown Heirs)9268 Jordan Drive, Mentor, OH 44060$75,000.00$56,458.57Active 
27-B-057-F-00-029-0 14CF002312 05/11/2015The Home Savings and Loan Company of Youngstown, OhioWhite, Daniel J.892 Chestnut Road, Willoughby, OH 44094$120,000.00$128,805.03Active 
29-A-001-G-00-022-0 14CF001860 05/11/2015Federal National Mortgage Association ("Fannie Mae")Selfridge, Barbara (Estate of)30033 Truman Avenue, Wickliffe, OH 44092$105,000.00$99,401.88Active 
27-A-032-B-00-013-0 14CF001187 05/11/2015Wells Fargo Bank, N.A.Arquette, Kenneth R. Jr.39004 Johnnycake Ridge Road, Willoughby, OH 44094$135,000.00$144,832.77Active 
20-A-027-0-00-038-0 14CF000697 05/11/2015PNC Mortgage, a division of PNC Bank, National AssociationVega, Hector M.10731 Tibbetts Road, Kirtland, OH 44094$282,000.00$245,889.20Canceled 
34-B-025-D-00-121-0 14CF001535 05/11/2015Kondaur Capital CorporationEvans, Mary Louise aka Krisak, Mary Louise fka Streeter, Mary L.37414 Green Drive, Eastlake, OH 44095$57,000.00$86,123.08Active 
27-B-057-G-00-026-0 14CF002259 05/11/2015HSBC Bank USA, National Association, as TrusteeStemple, Scott A.1065 Garden Road, Willoughby, OH 44094$72,000.00$109,378.63Active 
29-B-007-V-00-008-0 14CF000671 05/11/2015Green Tree Servicing LLCMitchell, Lionel W. (Unknown Spouse)2148 Green Ridge Drive, Wickliffe, OH 44092$84,000.00$78,334.75Active 
19-A-090-I-00-008-0 14CF001282 05/11/2015Talmer Bank and Trust successor by merger to First Place BankPages, Armando E.7728 Primrose Drive, Mentor-on-the-Lake, OH 44060$129,000.00$114,211.04Active 
28-A-048-B-00-037-0 10CF001603 05/11/2015CitiMortgage, Inc.Loparo, Donica32130 Willowick Drive, Willowick, OH 44095$93,000.00$101,498.14Active 
16-D-115-0-00-042-0 11CF002546 05/11/2015Wells Fargo Bank, NASchlegel, Jenalle M.9481 Lake Shore Boulevard, Mentor, OH 44060$186,000.00$220,176.32Canceled 
29-A-001-C-00-024-0 14CF002073 05/18/2015Deutsche Bank National Trust Company, as TrusteeClifford, Carol J.29930 Enid Road, Wickliffe, OH 44092$84,000.00$49,158.60Active 
27-A-007-L-00-017-0 14CF001318 05/18/2015Bank of America, N.A.Stauss, David L.5075 Nan Linn Drive, Willoughby, OH 44094$99,000.00$101,227.81Active 
31-A-012-0-00-008-0 14CF000091 05/18/2015KeyBank National AssociationBrigandi, Anthony J.35350 Hanna Road, Willouhby Hills, OH 4494$237,000.00$137,318.68Active 
27-B-057-B-00-028-0 14CF002053 05/18/2015Wells Fargo Bank, NAChapin, Connie L.900 Shadowrow Avenue, Willoughby, OH 44094$129,000.00$138,425.00Active 
34-B-023-D-00-061-0 14CF000926 05/18/2015U.S. Bank Trust, N.A., as TrusteeAlford, William J., II59 River Drive, Eastlake, OH 44095$72,000.00$118,918.30Active 
16-A-018-E-00-041-0 14CF002256 05/18/2015Wells Fargo Bank, N.A.Perkins-Harris, Lillian3 Meadowlawn Drive, #17, Mentor, OH 44060$75,000.00$50,667.44Active 
27-A-018-N-00-028-0 14CF001833 05/18/2015Wells Fargo Bank, N.A.Powali, Theresa37428 Harlow Drive, Willoughby, OH 44094$255,000.00$272,105.69Canceled 
27-A-006-K-00-030-0 14CF001350 05/18/2015Big Turtle II Condominium Unit Owners' Association, Inc.Budinsky, Joan L.5416-B Cascade Court, Willoughby, OH 44094$81,000.00$81,257.62Active 
27-A-006-K-00-027-0 14CF001353 05/18/2015Big Turtle II Condominium Unit Owners' Association, Inc.Radovanic, Christina aka Weis, Christina5418-C Cascade Court, Willoughby, OH 44094$72,000.00$10,311.06Active 
34-A-008-C-00-020-0 14CF001876 05/18/2015U.S. Bank N.A.Spaller, Jacqueline M.1362 East 359th Street, Eastlake, OH 44095$84,000.00$90,055.70Active 
28-A-039-M-00-032-0 11CF003347 05/18/2015Bank of America, N.A.Wogenstahl, Kurt G.848 Deborah Drive, Willowick, OH 44095$120,000.00$71,195.80Active 
16-D-111-I-00-014-0 12CF002545 05/18/2015Bank of America, N.A.Leikala, Daryel J.5007 Belle Meadow Road, Mentor, OH 44060$117,000.00$180,764.55Active 
15-B-005-0-00-036-0 14CF000624 05/18/2015JPMorgan Chase Bank, National AssociationOrtiz, Rafael Arias29 Lusard Street, Painesville, OH 44077$72,000.00$69,744.75Canceled 
16-C-077-B-00-015-0 13CF000938 05/18/2015U.S. Bank National Association, as TrusteeBanker, Jacqueline J.6611 Elmwood Road, Mentor, OH 44060$105,000.00$110,002.57Active 
01-B-115-G-00-056-0 01-B-115-G-00-057-0 14CF001828 05/26/2015Wells Fargo Bank, N.A.Anaya, Rodolfo1510 Easton Avenue, Madison, OH 44057$51,000.00$99,920.12Active 
11-B-041-G-06-087-0 11-B-041-G-06-086-0 11-B-041-G-06-088-0 11-B-043-0-00-012-0 14CF002221 05/26/2015JPMorgan Chase Bank, National AssociationKarlovec, Randy L.970 Oakwood Boulevard, Painesville, OH 44077$60,000.00$64,059.99Active 
15-B-012-0-00-049-0 14CF001801 05/26/2015The Bank of New York Mellon Trust CompanyRodriguez, Rafael39 Stockwell Street, Painesville, OH 44077$42,000.00$80,744.46Active 
01-B-098-E-00-017-0 14CF002187 05/26/2015JPMorgan Chase Bank, National AssociationBrown, Connie D.1352 Davista Avenue, Madison, OH 44057$57,000.00$75,204.51Active 
15-A-021-0-00-072-0 15-A-021-0-00-073-0 14CF002382 05/26/2015Dollar Bank, FSBDowdy, Janette M.672 North State Street, Painesville, OH 44077$51,000.00$55,758.62Active 
14-A-005-A-00-061-0 13CF002696 05/26/2015Wells Fargo Bank, N.A.Murphy, Kellie 662 Second Street, Unit #1L, Fariport Harbor, OH 44077$123,000.00$109,281.89Active 
07-A-006-A-00-025-0 14CF002363 05/26/2015Wells Fargo Bank, NADavison, Linda Lee14125 Painesville Warren Road, Leroy, OH 44077$105,000.00$103,499.29Canceled 
08-A-009-A-00-009-0 08-A-009-A-00-008-0 08CF000498 05/26/2015JPMorgan Chase Bank, NAUrankar, Thomas J.6573 Williams Road, Concord, OH 44077$123,000.00$28,927.83Active 
01-B-106-F-00-026-0 11CF002942 05/26/2015CitiMortgage, Inc.Humphrey, Caren D.7180 Anthony Cout, Madison, OH 44057$78,000.00$82,603.77Canceled 
01-B-129-B-00-001-0 12CF000385 05/26/2015Bank of America, N.A.Barnes, George R.5560 St. Thomas Lane, Madison, OH 44057$105,000.00$141,758.47Active 
11-B-045-B-00-042-0 13CF001158 05/26/2015USDAPayne, Stacy L.1610 Wickham Place, Painesville, OH 44077$144,000.00$172,659.63Active 
03-A-003-0-00-004-0 03-A-003-0-00-005-0 13CF001234 05/26/2015First Place BankSmith, Robert A. (Estate of)5148 Lane Road, Perry, OH 44081$66,000.00$92,300.29Active 
16-C-074-C-00-020-0 13CF001846 05/26/2015Independence Place Condominium AssociationKusmirek, George **Appraised Value is Minimum Bid**7990-D Independence Drive, Mentor, OH 44060$32,000.00$7,368.00Active 
27-A-032-B-00-010-0 14CF000906 06/01/2015SunTrust Mortgage Inc.Kanieski, Eva38978 Johnnycake Ridge Road, Willoughby, OH 44094$72,000.00$122,452.78Active 
28-A-040-G-03-092-0 14CF001620 06/01/2015National Credit Union Administration BoardBencun, Catherine A. aka Igrec, Catherine30228 Forestgrove Road, Willowick, OH 44095$84,000.00$78,423.45Active 
34-B-025-B-00-089-0 14CF001569 06/01/2015JPMorgan Chase Bank, National AssociationBolin, Robert E. Jr.135 Traymore Boulevard, Eastlake, OH 44095$15,000.00$122,945.86Active 
28-A-039-B-00-062-0 11CF002289 06/01/2015Bank of America, N.A.Dodd, Shawn F.30209 Thomas Street, Willowick, OH 44095$75,000.00$98,660.13Active 
16-D-111-O-00-002-0 14CF001401 06/01/2015CitiMortgage, Inc.Cast, Howard4891 Glenn Lodge Road, Mentor, OH 44060$87,000.00$87,876.35Active 
01-B-096-C-00-009-0 12CF001803 06/01/2015USDAKnowles, Kim **Appriased Value is Minimum Bid per Cout Order**6868 Shelly Dirve, Madison, OH 44057$45,000.00$139,761.91Active 
28-A-042-J-00-066-0 14CF001845 06/01/2015Ventus Properties, LLCWalters, Leonard R.28682 Forest Road, Willowick, OH 44095$108,000.00$26,334.34Canceled 
29-A-001-J-00-025-0 14CF001274 06/01/2015James B. Nutter & CompanyKendzierski, Kevin J.30011 Warren Road, Wickliffe, OH 44092$93,000.00$97,857.61Active 
19-A-092-N-00-025-0 14CF001362 06/01/2015Federal National Mortgage AssociationMalloy, Norma A. (Estate of)8080 Harbor Creek Drive, #701, Mentor-on-the-Lake, OH 44060$75,000.00$66,420.55Active 
16-D-111-L-00-013-0 14CF001928 06/01/2015Deutsche Bank National Trust Company, as TrusteeHood, Keith A.4742 Brooksdale Road, Mentor, OH 44060$66,000.00$104,387.53Active 
16-D-117-K-00-007-0 14CF001959 06/01/2015The Huntington National BankHall, Lisa J.4696 Homewood Drive, Mentor, OH 44060$69,000.00$80,664.60Active 
20-A-015-B-00-037-0 14CF001787 06/01/2015JPMorgan Chase Bank, National AssociationDorotic, Tonice Ante aka Dorotic, Torci Ante9829 Partridge Trail, Kirtland, OH 44094$222,000.00$257,407.72Active 
16-A-010-A-00-017-0 14CF002372 06/01/2015Live Well Financial Inc.Tidy, Carol I. aka Tidy, Carol L.7626 CenterStreet, Mentor, OH 44060$123,000.00$136,537.40Active 
27-B-055-B-00-029-0 14CF000657 06/01/2015Bank of Amrica, N.A.McClain, Ronald L.967 Mohegan Trail, Willoughby, OH 44094$57,000.00$71,599.99Active 
14-A-014-0-00-034-0 12CF000460 06/03/2015Lake County TreasurerOrosz, Carey321 Sixth Street, Fairport Harbor, OH 44077$23,830.76$23,830.76Active 
27-B-057-B-00-103-0 12CF001622 06/03/2015Lake County TreasurerFortney, Sandra S.862 Peach Boulevard, Willoughby, OH 44094$20,000.00$20,000.00Active 
11-A-022-A-00-032-0 14CF001951 06/08/2015Matrix Financial Services CorporationClary, Robert B.1103 Madison Avenue, Painesville, OH 44077$90,000.00$118,257.65Active 
11-A-022-D-00-006-0 14CF001889 06/08/2015FirstMerit Bank, N.A.Johnson, Michael G.62 Boulder Ridge Place, Painesville, OH 44077$120,000.00$41,231.98Active 
01-B-119-A-00-029-0 14CF001110 06/08/2015Federal National Mortgage Association ("Fannie Mae")Balaban, David P.2226 Chimney Ridge Drive, Madison, OH 44057$213,000.00$212,000.00Active 
01-B-130-C-00-010-0 12CF002695 06/08/2015Christiana TrustSanders, Gerald R. (deceased)1948 Sandgate Road, Madison, OH 44057$60,000.00$121,401.70Active 
01-A-091-F-01-009-0 01-A-091-F-01-010-0 14CF002318 06/08/2015U.S. Bank National Association, as TrusteeIverson, Linda O.1174 Atwater Road, Madison, OH 44057$72,000.00$106,614.64Active 
03-A-013-B-00-008-0 14CF000529 06/08/2015Regency Finance Company, dba Citizens Financial Services Inc.Gray, Lori A.3947 Lane Road, Painesville, OH 44077$81,000.00$44,457.67Active 
15-D-021-A-00-002-0 14CF002093 06/08/2015MidFirst BankJeffrey, Cecil W. Jr.956 Skinner Avenue, Painesville, OH 44077$63,000.00$74,470.21Active 
01-A-090-0-00-031-0 12CF001296 06/08/2015USDAO'Neill, Kevin7400 Lake Road East, Madison, OH 44057$105,000.00$132,759.39Active 
08-A-017-C-00-003-0 14CF001145 06/08/2015CitiMortgage, Inc.Megyesi, Joseph J.10996 Stonewycke Drive, Painesville, OH 44077$297,000.00$291,683.28Active 
11-B-032-C-00-061-0 14CF000738 06/08/2015Talmer Bank and Trust Successor by merger to First Place BankBowers, Matthew A.18 Heckathorne Drive, Painesville, OH 44077$78,000.00$105,773.86Active 
15-A-022-A-00-001-0 06CF002751 06/08/2015Wells Fargo Bank, NACampbell, Ernestine (now deceased)556 Homeworth Avenue, Painesville, OH 44077$63,000.00$47,944.33Active 
04-A-053-A-00-022-0 12CF002757 06/08/2015USDASotkovsky, Rebecca A.4250 Harper Street, Perry, OH 44081$96,000.00$159,068.81Active 
34-B-025-C-00-009-0 14CF000814 06/08/2015JPMorgan Chase Bank, National AssociationWolfe, Deborah Lee196 Plymouth Road, Eastlake, OH 44095$60,000.00$27,453.16Active 
34-A-008-C-00-046-0 14CF001129 06/08/2015Green Tree Servicing LLCHaines, Candace E.aka Hoagland, Candace1261 East 359th Street, Eastlake, OH 44095$66,000.00$84,089.88Active 
29-B-008-A-00-024-0 14CF001750 06/08/2015JPMorgan Chase Bank, National AssociationOldenburgh, Frank A.1733 East 291st Street, Wickliffe, OH 44092$102,000.00$145,425.66Active